createdAt,value
2018-09-21T00:02:26.695Z,100425.80
2018-09-21T00:04:56.661Z,100428.84
2018-09-21T00:07:26.583Z,100420.94
2018-09-21T00:09:55.566Z,100419.27
2018-09-21T00:12:24.582Z,100412.74
2018-09-21T00:14:53.548Z,100408.38
2018-09-21T00:17:22.454Z,100401.34
2018-09-21T00:19:51.343Z,100406.55
2018-09-21T00:22:20.229Z,100407.11
2018-09-21T00:24:49.235Z,100394.81
2018-09-21T00:27:18.125Z,100391.25
2018-09-21T00:29:47.113Z,100397.58
2018-09-21T00:32:16.099Z,100395.16
2018-09-21T00:34:46.007Z,100389.16
2018-09-21T00:37:14.885Z,100392.42
2018-09-21T00:39:43.733Z,100384.25
2018-09-21T00:42:12.644Z,100382.81
2018-09-21T00:44:41.575Z,100378.15
2018-09-21T00:47:11.450Z,100376.02
2018-09-21T00:49:40.535Z,100369.91
2018-09-21T00:52:09.553Z,100366.08
2018-09-21T00:54:38.445Z,100352.68
2018-09-21T00:57:07.360Z,100348.28
2018-09-21T00:59:36.329Z,100346.61
2018-09-21T01:02:05.217Z,100342.51
2018-09-21T01:04:39.473Z,100344.90
2018-09-21T01:07:08.455Z,100337.84
2018-09-21T01:09:37.473Z,100342.77
2018-09-21T01:12:06.408Z,100345.69
2018-09-21T01:14:35.305Z,100337.23
2018-09-21T01:17:04.263Z,100329.10
2018-09-21T01:19:33.205Z,100323.11
2018-09-21T01:22:02.093Z,100322.31
2018-09-21T01:24:30.960Z,100316.54
2018-09-21T01:27:00.923Z,100303.97
2018-09-21T01:29:29.798Z,100302.34
2018-09-21T01:31:58.690Z,100295.43
2018-09-21T01:34:27.653Z,100296.22
2018-09-21T01:36:56.590Z,100286.66
2018-09-21T01:39:25.439Z,100286.20
2018-09-21T01:41:54.436Z,100282.64
2018-09-21T01:44:23.343Z,100274.93
2018-09-21T01:46:52.217Z,100281.80
2018-09-21T01:49:21.121Z,100270.07
2018-09-21T01:51:50.017Z,100266.02
2018-09-21T01:54:18.913Z,100268.17
2018-09-21T01:56:48.797Z,100264.91
2018-09-21T01:59:17.743Z,100257.51
2018-09-21T02:01:46.594Z,100259.14
2018-09-21T02:04:16.502Z,100254.69
2018-09-21T02:06:45.398Z,100248.73
2018-09-21T02:09:14.364Z,100245.13
2018-09-21T02:11:43.214Z,100242.34
2018-09-21T02:14:12.193Z,100233.27
2018-09-21T02:16:41.175Z,100229.20
2018-09-21T02:19:10.441Z,100221.05
2018-09-21T02:21:39.325Z,100209.50
2018-09-21T02:24:08.229Z,100204.60
2018-09-21T02:26:37.152Z,100191.15
2018-09-21T02:29:06.228Z,100188.41
2018-09-21T02:31:35.133Z,100190.30
2018-09-21T02:34:05.089Z,100191.58
2018-09-21T02:36:34.115Z,100177.91
2018-09-21T02:39:03.307Z,100157.36
2018-09-21T02:41:33.535Z,100155.73
2018-09-21T02:44:02.383Z,100150.78
2018-09-21T02:46:31.387Z,100142.89
2018-09-21T02:49:00.445Z,100143.94
2018-09-21T02:51:29.474Z,100140.64
2018-09-21T02:53:58.445Z,100141.20
2018-09-21T02:56:27.627Z,100129.27
2018-09-21T02:58:57.590Z,100126.73
2018-09-21T03:01:26.569Z,100112.76
2018-09-21T03:03:55.502Z,100103.19
2018-09-21T03:06:25.569Z,100096.79
2018-09-21T03:08:55.439Z,100093.11
2018-09-21T03:11:24.314Z,100090.05
2018-09-21T03:13:53.236Z,100081.55
2018-09-21T03:16:23.207Z,100075.53
2018-09-21T03:18:52.143Z,100071.02
2018-09-21T03:21:21.168Z,100057.85
2018-09-21T03:23:50.177Z,100051.34
2018-09-21T03:26:19.160Z,100051.50
2018-09-21T03:28:48.114Z,100047.70
2018-09-21T03:31:17.003Z,100036.45
2018-09-21T03:33:45.897Z,100044.92
2018-09-21T03:36:15.826Z,100038.91
2018-09-21T03:38:44.798Z,100031.87
2018-09-21T03:41:14.744Z,100024.14
2018-09-21T03:43:43.729Z,100018.67
2018-09-21T03:46:12.747Z,100020.44
2018-09-21T03:48:41.709Z,100002.34
2018-09-21T03:51:11.616Z,100005.34
2018-09-21T03:53:41.532Z,100003.66
2018-09-21T03:56:11.446Z,99995.51
2018-09-21T03:58:41.582Z,99995.83
2018-09-21T04:01:10.649Z,99990.09
2018-09-21T04:03:39.568Z,99990.48
2018-09-21T04:06:08.565Z,99984.39
2018-09-21T04:08:38.477Z,99989.14
2018-09-21T04:11:08.378Z,99989.26
2018-09-21T04:13:38.319Z,99980.54
2018-09-21T04:16:07.594Z,99988.38
2018-09-21T04:18:37.547Z,99988.17
2018-09-21T04:21:06.590Z,99977.48
2018-09-21T04:23:35.572Z,99981.05
2018-09-21T04:26:04.527Z,99982.16
2018-09-21T04:28:33.487Z,99966.00
2018-09-21T04:31:02.480Z,99969.48
2018-09-21T04:33:32.382Z,99970.72
2018-09-21T04:36:02.360Z,99966.36
2018-09-21T04:38:31.199Z,99958.80
2018-09-21T04:41:00.127Z,99956.66
2018-09-21T04:43:29.104Z,99956.28
2018-09-21T04:45:58.770Z,99958.80
2018-09-21T04:48:27.721Z,99952.55
2018-09-21T04:50:56.691Z,99951.70
2018-09-21T04:53:26.685Z,99952.56
2018-09-21T04:55:55.580Z,99962.91
2018-09-21T04:58:25.572Z,99963.09
2018-09-21T05:00:55.526Z,99965.04
2018-09-21T05:03:24.521Z,99956.51
2018-09-21T05:05:53.478Z,99951.61
2018-09-21T05:08:22.415Z,99950.46
2018-09-21T05:10:51.388Z,99945.88
2018-09-21T05:13:21.343Z,99942.63
2018-09-21T05:15:51.349Z,99933.42
2018-09-21T05:18:20.282Z,99932.79
2018-09-21T05:20:49.275Z,99932.25
2018-09-21T05:23:18.225Z,99928.92
2018-09-21T05:25:47.183Z,99935.70
2018-09-21T05:28:16.137Z,99929.38
2018-09-21T05:30:45.088Z,99932.26
2018-09-21T05:33:14.974Z,99925.00
2018-09-21T05:35:43.897Z,99925.33
2018-09-21T05:38:13.963Z,99930.16
2018-09-21T05:40:42.913Z,99918.95
2018-09-21T05:43:11.923Z,99912.86
2018-09-21T05:45:40.931Z,99923.31
2018-09-21T05:48:09.910Z,99907.75
2018-09-21T05:50:38.876Z,99919.84
2018-09-21T05:53:08.531Z,99920.58
2018-09-21T05:55:37.546Z,99923.44
2018-09-21T05:58:06.454Z,99909.30
2018-09-21T06:00:36.382Z,99931.39
2018-09-21T06:03:05.410Z,99925.41
2018-09-21T06:05:34.365Z,99926.10
2018-09-21T06:08:03.337Z,99917.56
2018-09-21T06:10:32.222Z,99912.66
2018-09-21T06:13:01.135Z,99910.53
2018-09-21T06:15:31.053Z,99903.43
2018-09-21T06:18:01.018Z,99907.47
2018-09-21T06:20:29.925Z,99927.66
2018-09-21T06:22:58.851Z,99930.00
2018-09-21T06:25:27.732Z,99922.91
2018-09-21T06:27:57.680Z,99932.86
2018-09-21T06:30:26.638Z,99957.01
2018-09-21T06:32:56.597Z,99951.34
2018-09-21T06:35:25.630Z,99951.91
2018-09-21T06:37:54.563Z,99951.71
2018-09-21T06:40:23.450Z,99944.28
2018-09-21T06:42:52.412Z,99923.48
2018-09-21T06:45:21.518Z,99922.55
2018-09-21T06:47:50.398Z,99925.62
2018-09-21T06:50:19.326Z,99939.06
2018-09-21T06:52:49.243Z,99933.19
2018-09-21T06:55:20.181Z,99949.88
2018-09-21T06:57:49.171Z,99948.00
2018-09-21T07:00:18.090Z,99957.57
2018-09-21T07:02:47.047Z,99935.65
2018-09-21T07:05:17.821Z,99950.39
2018-09-21T07:07:46.869Z,99939.30
2018-09-21T07:10:15.731Z,99944.27
2018-09-21T07:12:45.728Z,99995.14
2018-09-21T07:15:14.622Z,99966.59
2018-09-21T07:17:43.636Z,99962.91
2018-09-21T07:20:12.642Z,99980.54
2018-09-21T07:22:41.558Z,99973.88
2018-09-21T07:25:10.444Z,99995.45
2018-09-21T07:27:39.459Z,99982.05
2018-09-21T07:30:09.349Z,99988.74
2018-09-21T07:32:38.237Z,99984.99
2018-09-21T07:35:07.184Z,99993.13
2018-09-21T07:37:36.229Z,99985.84
2018-09-21T07:40:05.744Z,99986.83
2018-09-21T07:42:34.714Z,99969.73
2018-09-21T07:45:04.664Z,99956.75
2018-09-21T07:47:33.635Z,99964.78
2018-09-21T07:50:02.637Z,99961.79
2018-09-21T07:52:31.669Z,99964.91
2018-09-21T07:55:00.655Z,99943.27
2018-09-21T07:57:29.576Z,99948.73
2018-09-21T07:59:58.505Z,99955.08
2018-09-21T08:02:27.524Z,99953.20
2018-09-21T08:04:56.470Z,99955.01
2018-09-21T08:07:25.361Z,99961.59
2018-09-21T08:09:54.284Z,99972.01
2018-09-21T08:12:23.280Z,99971.81
2018-09-21T08:14:53.181Z,99964.41
2018-09-21T08:17:24.016Z,99952.66
2018-09-21T08:19:54.001Z,99937.34
2018-09-21T08:22:22.894Z,99938.45
2018-09-21T08:24:51.865Z,99939.64
2018-09-21T08:27:20.893Z,99935.95
2018-09-21T08:29:49.975Z,99949.70
2018-09-21T08:32:18.914Z,99974.33
2018-09-21T08:34:47.994Z,100034.04
2018-09-21T08:37:17.012Z,100105.95
2018-09-21T08:39:45.987Z,100192.84
2018-09-21T08:42:15.935Z,100197.66
2018-09-21T08:44:44.868Z,100203.30
2018-09-21T08:47:14.831Z,100224.68
2018-09-21T08:49:43.772Z,100209.17
2018-09-21T08:52:12.693Z,100210.11
2018-09-21T08:54:42.577Z,100218.84
2018-09-21T08:57:11.525Z,100210.98
2018-09-21T08:59:40.485Z,100217.86
2018-09-21T09:02:09.567Z,100215.15
2018-09-21T09:04:38.442Z,100212.97
2018-09-21T09:07:07.631Z,100224.05
2018-09-21T09:09:36.566Z,100228.17
2018-09-21T09:12:06.454Z,100250.11
2018-09-21T09:14:36.429Z,100241.38
2018-09-21T09:17:05.535Z,100268.80
2018-09-21T09:19:35.493Z,100273.14
2018-09-21T09:22:05.545Z,100280.22
2018-09-21T09:24:34.563Z,100281.84
2018-09-21T09:27:04.440Z,100280.55
2018-09-21T09:29:33.439Z,100273.16
2018-09-21T09:32:02.442Z,100273.36
2018-09-21T09:34:31.435Z,100288.02
2018-09-21T09:37:00.426Z,100303.74
2018-09-21T09:39:29.316Z,100290.75
2018-09-21T09:41:58.246Z,100283.72
2018-09-21T09:44:27.156Z,100298.09
2018-09-21T09:46:56.079Z,100292.98
2018-09-21T09:49:25.966Z,100295.41
2018-09-21T09:51:54.974Z,100293.80
2018-09-21T09:54:24.877Z,100301.05
2018-09-21T09:56:53.795Z,100309.45
2018-09-21T09:59:23.733Z,100299.15
2018-09-21T10:01:52.658Z,100284.32
2018-09-21T10:04:21.563Z,100275.13
2018-09-21T10:06:50.539Z,100294.42
2018-09-21T10:09:19.465Z,100302.03
2018-09-21T10:11:49.380Z,100310.12
2018-09-21T10:14:18.387Z,100303.91
2018-09-21T10:16:47.364Z,100304.76
2018-09-21T10:19:16.381Z,100315.80
2018-09-21T10:21:45.345Z,100312.61
2018-09-21T10:24:14.361Z,100319.13
2018-09-21T10:26:43.366Z,100322.06
2018-09-21T10:29:12.317Z,100319.91
2018-09-21T10:31:41.247Z,100329.98
2018-09-21T10:34:11.114Z,100325.91
2018-09-21T10:36:40.005Z,100323.78
2018-09-21T10:39:09.158Z,100329.45
2018-09-21T10:41:38.184Z,100333.02
2018-09-21T10:44:07.101Z,100339.00
2018-09-21T10:46:36.101Z,100335.17
2018-09-21T10:49:05.022Z,100331.09
2018-09-21T10:51:34.009Z,100328.09
2018-09-21T10:54:03.033Z,100325.66
2018-09-21T10:56:33.002Z,100334.09
2018-09-21T10:59:02.903Z,100343.08
2018-09-21T11:01:31.778Z,100333.81
2018-09-21T11:04:00.685Z,100342.52
2018-09-21T11:06:29.661Z,100335.17
2018-09-21T11:08:59.609Z,100339.52
2018-09-21T11:11:28.597Z,100338.72
2018-09-21T11:13:58.525Z,100347.39
2018-09-21T11:16:27.673Z,100340.61
2018-09-21T11:18:56.600Z,100337.64
2018-09-21T11:21:25.611Z,100345.50
2018-09-21T11:23:54.498Z,100355.55
2018-09-21T11:26:23.493Z,100369.41
2018-09-21T11:28:52.493Z,100359.37
2018-09-21T11:31:21.794Z,100365.05
2018-09-21T11:33:50.745Z,100364.25
2018-09-21T11:36:19.669Z,100362.63
2018-09-21T11:38:48.714Z,100368.57
2018-09-21T11:41:17.626Z,100372.08
2018-09-21T11:43:47.630Z,100361.73
2018-09-21T11:46:16.534Z,100366.12
2018-09-21T11:48:45.412Z,100372.91
2018-09-21T11:51:14.351Z,100369.66
2018-09-21T11:53:43.249Z,100372.94
2018-09-21T11:56:12.217Z,100365.05
2018-09-21T11:58:41.165Z,100369.37
2018-09-21T12:01:10.895Z,100382.46
2018-09-21T12:03:39.818Z,100385.13
2018-09-21T12:06:09.730Z,100391.09
2018-09-21T12:08:38.887Z,100393.25
2018-09-21T12:11:07.844Z,100396.27
2018-09-21T12:13:36.843Z,100405.75
2018-09-21T12:16:05.913Z,100408.48
2018-09-21T12:18:34.729Z,100414.16
2018-09-21T12:21:03.685Z,100421.55
2018-09-21T12:23:32.580Z,100427.55
2018-09-21T12:26:01.592Z,100418.28
2018-09-21T12:28:30.497Z,100429.70
2018-09-21T12:30:59.454Z,100437.28
2018-09-21T12:33:29.370Z,100450.87
2018-09-21T12:35:58.375Z,100454.44
2018-09-21T12:38:27.270Z,100465.34
2018-09-21T12:40:56.268Z,100457.19
2018-09-21T12:43:25.249Z,100460.98
2018-09-21T12:45:55.152Z,100468.90
2018-09-21T12:48:24.125Z,100477.87
2018-09-21T12:50:53.125Z,100478.34
2018-09-21T12:53:22.038Z,100486.01
2018-09-21T12:55:51.123Z,100481.13
2018-09-21T12:58:20.149Z,100500.72
2018-09-21T13:00:51.446Z,100496.89
2018-09-21T13:03:21.460Z,100511.03
2018-09-21T13:05:54.415Z,100504.23
2018-09-21T13:08:24.446Z,100504.80
2018-09-21T13:10:53.564Z,100500.42
2018-09-21T13:13:22.494Z,100515.94
2018-09-21T13:15:52.037Z,100520.83
2018-09-21T13:18:20.981Z,100517.54
2018-09-21T13:20:49.955Z,100526.01
2018-09-21T13:23:18.850Z,100529.30
2018-09-21T13:25:48.832Z,100532.80
2018-09-21T13:28:17.750Z,100537.16
2018-09-21T13:30:46.650Z,100534.48
2018-09-21T13:33:15.569Z,100541.27
2018-09-21T13:35:44.529Z,100550.53
2018-09-21T13:38:14.479Z,100558.97
2018-09-21T13:40:43.507Z,100563.61
2018-09-21T13:43:12.418Z,100569.30
2018-09-21T13:45:42.372Z,100566.86
2018-09-21T13:48:11.368Z,100576.37
2018-09-21T13:50:40.394Z,100585.90
2018-09-21T13:53:09.359Z,100578.86
2018-09-21T13:55:38.430Z,100579.37
2018-09-21T13:58:08.367Z,100580.97
2018-09-21T14:00:37.279Z,100586.95
2018-09-21T14:03:06.559Z,100584.75
2018-09-21T14:05:35.571Z,100595.14
2018-09-21T14:08:04.441Z,100577.70
2018-09-21T14:10:34.443Z,100579.08
2018-09-21T14:13:03.450Z,100582.91
2018-09-21T14:15:32.408Z,100579.89
2018-09-21T14:18:01.400Z,100588.03
2018-09-21T14:20:30.302Z,100599.27
2018-09-21T14:23:00.343Z,100597.92
2018-09-21T14:25:30.265Z,100605.52
2018-09-21T14:27:59.254Z,100616.68
2018-09-21T14:30:28.206Z,100612.05
2018-09-21T14:32:57.969Z,100618.56
2018-09-21T14:35:27.491Z,100634.09
2018-09-21T14:37:56.424Z,100631.38
2018-09-21T14:40:25.493Z,100636.27
2018-09-21T14:42:54.427Z,100642.52
2018-09-21T14:45:24.353Z,100638.95
2018-09-21T14:47:53.381Z,100639.23
2018-09-21T14:50:23.327Z,100636.75
2018-09-21T14:52:53.319Z,100650.65
2018-09-21T14:55:22.289Z,100652.05
2018-09-21T14:57:51.255Z,100658.32
2018-09-21T15:00:21.191Z,100658.88
2018-09-21T15:02:50.263Z,100649.07
2018-09-21T15:05:21.213Z,100654.52
2018-09-21T15:07:51.446Z,100645.55
2018-09-21T15:10:20.395Z,100661.32
2018-09-21T15:12:49.427Z,100649.07
2018-09-21T15:15:18.525Z,100648.79
2018-09-21T15:17:48.401Z,100654.80
2018-09-21T15:20:17.302Z,100662.12
2018-09-21T15:22:46.204Z,100668.72
2018-09-21T15:25:15.200Z,100667.84
2018-09-21T15:27:44.221Z,100678.18
2018-09-21T15:30:13.482Z,100675.45
2018-09-21T15:32:42.377Z,100682.23
2018-09-21T15:35:12.371Z,100686.61
2018-09-21T15:37:41.346Z,100687.70
2018-09-21T15:40:10.270Z,100693.72
2018-09-21T15:42:40.223Z,100689.14
2018-09-21T15:45:09.211Z,100695.67
2018-09-21T15:47:38.168Z,100698.60
2018-09-21T15:50:07.245Z,100687.50
2018-09-21T15:52:36.232Z,100696.16
2018-09-21T15:55:05.173Z,100699.72
2018-09-21T15:57:34.182Z,100700.80
2018-09-21T16:00:03.157Z,100705.69
2018-09-21T16:02:32.175Z,100703.23
2018-09-21T16:05:01.099Z,100702.44
2018-09-21T16:07:30.057Z,100702.67
2018-09-21T16:09:59.034Z,100712.48
2018-09-21T16:12:28.152Z,100700.23
2018-09-21T16:14:57.119Z,100703.23
2018-09-21T16:17:26.092Z,100700.80
2018-09-21T16:19:55.072Z,100708.68
2018-09-21T16:22:25.236Z,100699.44
2018-09-21T16:24:54.224Z,100706.22
2018-09-21T16:27:24.102Z,100700.76
2018-09-21T16:29:53.034Z,100707.58
2018-09-21T16:32:22.040Z,100701.31
2018-09-21T16:34:51.001Z,100703.20
2018-09-21T16:37:20.942Z,100709.73
2018-09-21T16:39:49.932Z,100701.30
2018-09-21T16:42:18.900Z,100704.30
2018-09-21T16:44:47.810Z,100721.97
2018-09-21T16:47:16.689Z,100722.22
2018-09-21T16:49:45.666Z,100724.11
2018-09-21T16:52:14.648Z,100715.98
2018-09-21T16:54:43.785Z,100721.90
2018-09-21T16:57:12.827Z,100724.36
2018-09-21T16:59:41.778Z,100733.88
2018-09-21T17:02:11.674Z,100733.38
2018-09-21T17:04:41.704Z,100740.94
2018-09-21T17:07:14.730Z,100742.21
2018-09-21T17:09:44.497Z,100747.38
2018-09-21T17:12:14.381Z,100753.89
2018-09-21T17:14:43.481Z,100744.69
2018-09-21T17:17:12.374Z,100755.99
2018-09-21T17:19:41.278Z,100757.84
2018-09-21T17:22:10.277Z,100761.53
2018-09-21T17:24:39.743Z,100770.92
2018-09-21T17:27:08.799Z,100762.99
2018-09-21T17:29:38.786Z,100758.94
2018-09-21T17:32:07.829Z,100759.18
2018-09-21T17:34:36.803Z,100766.84
2018-09-21T17:37:05.763Z,100761.32
2018-09-21T17:39:35.728Z,100767.61
2018-09-21T17:42:05.809Z,100775.98
2018-09-21T17:44:35.862Z,100777.05
2018-09-21T17:47:04.762Z,100789.28
2018-09-21T17:49:34.742Z,100785.75
2018-09-21T17:52:03.710Z,100793.05
2018-09-21T17:54:33.606Z,100802.66
2018-09-21T17:57:02.925Z,100810.27
2018-09-21T17:59:32.863Z,100814.60
2018-09-21T18:02:01.808Z,100821.86
2018-09-21T18:04:30.755Z,100814.52
2018-09-21T18:06:59.737Z,100823.23
2018-09-21T18:09:29.663Z,100836.38
2018-09-21T18:11:58.698Z,100842.30
2018-09-21T18:14:27.745Z,100860.25
2018-09-21T18:16:56.725Z,100855.13
2018-09-21T18:19:26.704Z,100867.31
2018-09-21T18:21:56.682Z,100833.13
2018-09-21T18:24:26.674Z,100828.61
2018-09-21T18:26:56.625Z,100849.05
2018-09-21T18:29:25.711Z,100859.10
2018-09-21T18:31:54.652Z,100863.77
2018-09-21T18:34:23.618Z,100875.16
2018-09-21T18:36:52.577Z,100879.69
2018-09-21T18:39:21.505Z,100888.22
2018-09-21T18:41:50.451Z,100891.52
2018-09-21T18:44:20.607Z,100898.11
2018-09-21T18:46:49.620Z,100895.64
2018-09-21T18:49:18.528Z,100912.17
2018-09-21T18:51:47.549Z,100905.46
2018-09-21T18:54:17.456Z,100908.13
2018-09-21T18:56:46.462Z,100911.98
2018-09-21T18:59:16.422Z,100911.94
2018-09-21T19:01:45.417Z,100921.66
2018-09-21T19:04:14.534Z,100925.09
2018-09-21T19:06:43.464Z,100927.00
2018-09-21T19:09:12.960Z,100928.91
2018-09-21T19:11:42.894Z,100938.27
2018-09-21T19:14:11.890Z,100938.44
2018-09-21T19:16:40.861Z,100936.67
2018-09-21T19:19:10.852Z,100941.94
2018-09-21T19:21:40.819Z,100952.85
2018-09-21T19:24:09.803Z,100957.94
2018-09-21T19:26:38.894Z,100965.83
2018-09-21T19:29:07.782Z,100970.41
2018-09-21T19:31:36.775Z,100963.42
2018-09-21T19:34:05.764Z,100972.44
2018-09-21T19:36:34.775Z,100969.11
2018-09-21T19:39:08.099Z,100975.79
2018-09-21T19:41:37.055Z,100979.95
2018-09-21T19:44:07.962Z,100972.53
2018-09-21T19:46:38.979Z,100972.23
2018-09-21T19:49:08.029Z,100980.61
2018-09-21T19:51:39.188Z,100974.17
2018-09-21T19:54:08.178Z,100969.47
2018-09-21T19:56:37.173Z,100979.89
2018-09-21T19:59:07.142Z,100977.61
2018-09-21T20:01:36.084Z,100982.98
2018-09-21T20:04:06.128Z,100991.36
2018-09-21T20:06:35.233Z,101007.16
2018-09-21T20:09:06.025Z,101010.46
2018-09-21T20:11:35.033Z,101008.27
2018-09-21T20:14:05.048Z,101010.01
2018-09-21T20:16:34.103Z,101010.42
2018-09-21T20:19:03.910Z,101005.77
2018-09-21T20:21:32.810Z,101000.86
2018-09-21T20:24:01.822Z,101007.68
2018-09-21T20:26:32.555Z,101007.58
2018-09-21T20:29:01.611Z,101009.23
2018-09-21T20:31:36.799Z,101011.88
2018-09-21T20:34:05.840Z,101018.04
2018-09-21T20:36:34.851Z,101022.33
2018-09-21T20:39:06.860Z,101023.06
2018-09-21T20:41:36.935Z,101020.24
2018-09-21T20:44:06.846Z,101029.30
2018-09-21T20:46:36.843Z,101035.61
2018-09-21T20:49:05.769Z,101039.02
2018-09-21T20:51:35.708Z,101038.88
2018-09-21T20:54:06.103Z,101036.38
2018-09-21T20:56:36.056Z,101037.80
2018-09-21T20:59:05.053Z,101044.80
2018-09-21T21:01:34.111Z,101042.83
2018-09-21T21:04:03.031Z,101048.06
2018-09-21T21:06:32.050Z,101045.78
2018-09-21T21:09:00.966Z,101055.66
2018-09-21T21:11:30.924Z,101064.52
2018-09-21T21:13:59.926Z,101065.58
2018-09-21T21:16:29.212Z,101064.56
2018-09-21T21:18:59.163Z,101078.04
2018-09-21T21:21:28.165Z,101088.68
2018-09-21T21:23:57.085Z,101093.77
2018-09-21T21:26:26.412Z,101099.28
2018-09-21T21:28:56.314Z,101097.92
2018-09-21T21:31:25.262Z,101096.52
2018-09-21T21:33:54.222Z,101097.80
2018-09-21T21:36:23.244Z,101097.80
2018-09-21T21:38:52.159Z,101106.65
2018-09-21T21:41:21.081Z,101116.14
2018-09-21T21:43:50.073Z,101115.84
2018-09-21T21:46:19.144Z,101117.53
2018-09-21T21:48:48.072Z,101132.41
2018-09-21T21:51:17.075Z,101126.02
2018-09-21T21:53:45.927Z,101141.81
2018-09-21T21:56:15.857Z,101138.13
2018-09-21T21:58:45.859Z,101142.78
2018-09-21T22:01:20.089Z,101134.90
2018-09-21T22:03:49.150Z,101148.92
2018-09-21T22:06:18.143Z,101157.36
2018-09-21T22:08:47.050Z,101156.56
2018-09-21T22:11:21.303Z,101161.58
2018-09-21T22:13:55.500Z,101162.98
2018-09-21T22:16:24.385Z,101164.43
2018-09-21T22:18:53.260Z,101174.89
2018-09-21T22:21:22.157Z,101176.79
2018-09-21T22:23:51.071Z,101179.86
2018-09-21T22:26:22.644Z,101167.67
2018-09-21T22:28:52.447Z,101182.72
2018-09-21T22:31:23.371Z,101179.70
2018-09-21T22:33:53.379Z,101189.85
2018-09-21T22:36:22.366Z,101187.48
2018-09-21T22:38:51.332Z,101192.00
2018-09-21T22:41:21.290Z,101197.02
2018-09-21T22:43:50.317Z,101191.19
2018-09-21T22:46:19.220Z,101218.77
2018-09-21T22:48:48.767Z,101212.13
2018-09-21T22:51:18.341Z,101209.38
2018-09-21T22:53:47.248Z,101213.86
2018-09-21T22:56:16.129Z,101219.47
2018-09-21T22:58:45.009Z,101230.20
2018-09-21T23:01:13.912Z,101222.18
2018-09-21T23:03:42.864Z,101213.95
2018-09-21T23:06:11.898Z,101223.63
2018-09-21T23:08:40.863Z,101224.09
2018-09-21T23:11:09.839Z,101229.58
2018-09-21T23:13:38.792Z,101244.16
2018-09-21T23:16:07.712Z,101243.72
2018-09-21T23:18:36.584Z,101240.01
2018-09-21T23:21:05.457Z,101243.42
2018-09-21T23:23:34.386Z,101247.98
2018-09-21T23:26:04.351Z,101250.80
2018-09-21T23:28:33.304Z,101257.23
2018-09-21T23:31:02.285Z,101257.87
2018-09-21T23:33:32.215Z,101258.52
2018-09-21T23:36:01.121Z,101263.99
2018-09-21T23:38:31.063Z,101266.21
2018-09-21T23:41:00.022Z,101265.00
2018-09-21T23:43:29.003Z,101268.17
2018-09-21T23:45:57.918Z,101281.58
2018-09-21T23:48:26.774Z,101281.37
2018-09-21T23:50:55.812Z,101282.31
2018-09-21T23:53:24.653Z,101282.61
2018-09-21T23:55:53.625Z,101282.02
2018-09-21T23:58:22.611Z,101282.47
